sensor_id;sensor_type;location;lat;lon;timestamp;pressure;altitude;pressure_sealevel;temperature;humidity
62126;BME280;69591;53.282;6.150;2023-07-31T00:00:22;100796.16;;;21.88;61.04
62126;BME280;69591;53.282;6.150;2023-07-31T00:01:24;100796.94;;;21.89;61.29
62126;BME280;69591;53.282;6.150;2023-07-31T00:02:26;100798.50;;;21.90;60.69
62126;BME280;69591;53.282;6.150;2023-07-31T00:03:27;100801.25;;;21.90;61.30
62126;BME280;69591;53.282;6.150;2023-07-31T00:04:29;100794.97;;;21.89;61.18
62126;BME280;69591;53.282;6.150;2023-07-31T00:05:31;100792.22;;;21.89;60.78
62126;BME280;69591;53.282;6.150;2023-07-31T00:06:33;100792.22;;;21.89;60.80
62126;BME280;69591;53.282;6.150;2023-07-31T00:07:34;100796.53;;;21.90;60.63
62126;BME280;69591;53.282;6.150;2023-07-31T00:08:37;100793.00;;;21.90;61.27
62126;BME280;69591;53.282;6.150;2023-07-31T00:09:39;100792.22;;;21.89;61.27
62126;BME280;69591;53.282;6.150;2023-07-31T00:10:40;100792.22;;;21.89;61.01
62126;BME280;69591;53.282;6.150;2023-07-31T00:11:42;100790.66;;;21.88;60.77
62126;BME280;69591;53.282;6.150;2023-07-31T00:12:45;100793.41;;;21.88;60.74
62126;BME280;69591;53.282;6.150;2023-07-31T00:13:47;100785.94;;;21.89;60.99
62126;BME280;69591;53.282;6.150;2023-07-31T00:14:49;100789.91;;;21.88;61.20
62126;BME280;69591;53.282;6.150;2023-07-31T00:15:50;100784.00;;;21.89;60.84
62126;BME280;69591;53.282;6.150;2023-07-31T00:16:52;100791.44;;;21.89;61.10
62126;BME280;69591;53.282;6.150;2023-07-31T00:17:54;100786.75;;;21.89;60.92
62126;BME280;69591;53.282;6.150;2023-07-31T00:18:55;100789.13;;;21.87;60.74
62126;BME280;69591;53.282;6.150;2023-07-31T00:19:57;100789.13;;;21.87;61.13
62126;BME280;69591;53.282;6.150;2023-07-31T00:20:59;100789.91;;;21.88;61.02
62126;BME280;69591;53.282;6.150;2023-07-31T00:22:01;100787.91;;;21.88;61.15
62126;BME280;69591;53.282;6.150;2023-07-31T00:23:02;100784.41;;;21.88;61.01
62126;BME280;69591;53.282;6.150;2023-07-31T00:24:05;100785.16;;;21.88;61.10
62126;BME280;69591;53.282;6.150;2023-07-31T00:25:07;100776.56;;;21.86;60.82
62126;BME280;69591;53.282;6.150;2023-07-31T00:26:09;100778.13;;;21.87;61.23
62126;BME280;69591;53.282;6.150;2023-07-31T00:27:11;100782.06;;;21.86;61.19
62126;BME280;69591;53.282;6.150;2023-07-31T00:28:12;100775.38;;;21.87;61.30
62126;BME280;69591;53.282;6.150;2023-07-31T00:29:14;100783.63;;;21.87;61.10
62126;BME280;69591;53.282;6.150;2023-07-31T00:30:16;100768.75;;;21.85;60.91
62126;BME280;69591;53.282;6.150;2023-07-31T00:31:17;100769.97;;;21.80;61.31
62126;BME280;69591;53.282;6.150;2023-07-31T00:32:19;100778.13;;;21.87;61.33
62126;BME280;69591;53.282;6.150;2023-07-31T00:33:21;100780.09;;;21.87;61.27
62126;BME280;69591;53.282;6.150;2023-07-31T00:34:22;100774.59;;;21.87;61.21
62126;BME280;69591;53.282;6.150;2023-07-31T00:35:24;100782.06;;;21.86;60.85
62126;BME280;69591;53.282;6.150;2023-07-31T00:36:26;100777.34;;;21.87;60.81
62126;BME280;69591;53.282;6.150;2023-07-31T00:37:28;100780.09;;;21.87;61.23
62126;BME280;69591;53.282;6.150;2023-07-31T00:38:30;100775.78;;;21.86;61.34
62126;BME280;69591;53.282;6.150;2023-07-31T00:39:35;100780.88;;;21.87;61.45
62126;BME280;69591;53.282;6.150;2023-07-31T00:40:37;100780.50;;;21.85;60.82
62126;BME280;69591;53.282;6.150;2023-07-31T00:41:39;100775.00;;;21.85;61.42
62126;BME280;69591;53.282;6.150;2023-07-31T00:42:40;100768.75;;;21.85;60.95
62126;BME280;69591;53.282;6.150;2023-07-31T00:43:42;100774.25;;;21.85;61.12
62126;BME280;69591;53.282;6.150;2023-07-31T00:44:44;100776.56;;;21.86;61.00
62126;BME280;69591;53.282;6.150;2023-07-31T00:45:45;100771.50;;;21.85;61.02
62126;BME280;69591;53.282;6.150;2023-07-31T00:46:47;100768.75;;;21.85;60.93
62126;BME280;69591;53.282;6.150;2023-07-31T00:47:49;100771.50;;;21.85;61.40
62126;BME280;69591;53.282;6.150;2023-07-31T00:48:52;100764.44;;;21.84;61.15
62126;BME280;69591;53.282;6.150;2023-07-31T00:49:54;100762.47;;;21.84;60.84
62126;BME280;69591;53.282;6.150;2023-07-31T00:50:56;100759.72;;;21.84;61.45
62126;BME280;69591;53.282;6.150;2023-07-31T00:51:58;100763.69;;;21.83;60.85
62126;BME280;69591;53.282;6.150;2023-07-31T00:53:00;100761.25;;;21.85;60.94
62126;BME280;69591;53.282;6.150;2023-07-31T00:54:02;100761.69;;;21.84;61.08
62126;BME280;69591;53.282;6.150;2023-07-31T00:55:06;100759.34;;;21.82;60.80
62126;BME280;69591;53.282;6.150;2023-07-31T00:56:09;100755.44;;;21.83;61.07
62126;BME280;69591;53.282;6.150;2023-07-31T00:57:13;100760.13;;;21.83;60.83
62126;BME280;69591;53.282;6.150;2023-07-31T00:58:14;100757.41;;;21.83;61.03
62126;BME280;69591;53.282;6.150;2023-07-31T00:59:16;100758.19;;;21.83;61.09
62126;BME280;69591;53.282;6.150;2023-07-31T01:00:19;100753.84;;;21.82;61.01
62126;BME280;69591;53.282;6.150;2023-07-31T01:01:21;100749.56;;;21.81;61.51
62126;BME280;69591;53.282;6.150;2023-07-31T01:02:23;100752.69;;;21.83;60.99
62126;BME280;69591;53.282;6.150;2023-07-31T01:03:26;100760.13;;;21.83;61.22
62126;BME280;69591;53.282;6.150;2023-07-31T01:04:28;100753.84;;;21.82;60.88
62126;BME280;69591;53.282;6.150;2023-07-31T01:05:36;100759.34;;;21.82;60.88
62126;BME280;69591;53.282;6.150;2023-07-31T01:06:46;100752.31;;;21.81;61.46
62126;BME280;69591;53.282;6.150;2023-07-31T01:07:54;100757.44;;;21.79;61.45
62126;BME280;69591;53.282;6.150;2023-07-31T01:09:02;100760.19;;;21.79;61.38
62126;BME280;69591;53.282;6.150;2023-07-31T01:10:09;100755.13;;;21.78;61.18
62126;BME280;69591;53.282;6.150;2023-07-31T01:11:15;100760.19;;;21.79;61.10
62126;BME280;69591;53.282;6.150;2023-07-31T01:12:20;100757.44;;;21.79;61.50
62126;BME280;69591;53.282;6.150;2023-07-31T01:13:21;100753.16;;;21.78;61.14
62126;BME280;69591;53.282;6.150;2023-07-31T01:14:23;100751.94;;;21.79;61.30
62126;BME280;69591;53.282;6.150;2023-07-31T01:15:25;100758.97;;;21.80;61.19
62126;BME280;69591;53.282;6.150;2023-07-31T01:16:27;100750.75;;;21.80;61.03
62126;BME280;69591;53.282;6.150;2023-07-31T01:17:28;100747.25;;;21.80;60.95
62126;BME280;69591;53.282;6.150;2023-07-31T01:18:31;100748.00;;;21.80;60.89
62126;BME280;69591;53.282;6.150;2023-07-31T01:19:33;100751.94;;;21.79;61.12
62126;BME280;69591;53.282;6.150;2023-07-31T01:20:35;100753.50;;;21.80;61.34
62126;BME280;69591;53.282;6.150;2023-07-31T01:21:55;100743.00;;;21.75;61.17
62126;BME280;69591;53.282;6.150;2023-07-31T01:24:55;100750.91;;;21.70;61.41
62126;BME280;69591;53.282;6.150;2023-07-31T01:26:06;100747.72;;;21.71;61.41
62126;BME280;69591;53.282;6.150;2023-07-31T01:27:15;100749.28;;;21.72;61.54
62126;BME280;69591;53.282;6.150;2023-07-31T01:28:23;100746.88;;;21.74;61.42
62126;BME280;69591;53.282;6.150;2023-07-31T01:29:33;100743.84;;;21.69;61.02
62126;BME280;69591;53.282;6.150;2023-07-31T01:30:40;100745.34;;;21.73;61.21
62126;BME280;69591;53.282;6.150;2023-07-31T01:31:43;100746.88;;;21.74;61.44
62126;BME280;69591;53.282;6.150;2023-07-31T01:32:47;100745.75;;;21.75;61.55
62126;BME280;69591;53.282;6.150;2023-07-31T01:33:50;100745.75;;;21.75;61.67
62126;BME280;69591;53.282;6.150;2023-07-31T01:34:55;100734.00;;;21.71;61.40
62126;BME280;69591;53.282;6.150;2023-07-31T01:35:57;100741.41;;;21.74;61.69
62126;BME280;69591;53.282;6.150;2023-07-31T01:36:59;100743.00;;;21.75;61.69
62126;BME280;69591;53.282;6.150;2023-07-31T01:38:01;100737.50;;;21.75;61.06
62126;BME280;69591;53.282;6.150;2023-07-31T01:39:02;100739.03;;;21.76;61.54
62126;BME280;69591;53.282;6.150;2023-07-31T01:40:06;100744.53;;;21.76;61.34
62126;BME280;69591;53.282;6.150;2023-07-31T01:41:10;100743.34;;;21.77;61.71
62126;BME280;69591;53.282;6.150;2023-07-31T01:42:12;100748.50;;;21.75;61.41
62126;BME280;69591;53.282;6.150;2023-07-31T01:43:13;100743.75;;;21.76;61.39
62126;BME280;69591;53.282;6.150;2023-07-31T01:44:15;100733.53;;;21.76;61.65
62126;BME280;69591;53.282;6.150;2023-07-31T01:45:17;100744.53;;;21.76;61.72
62126;BME280;69591;53.282;6.150;2023-07-31T01:46:18;100736.28;;;21.76;61.04
62126;BME280;69591;53.282;6.150;2023-07-31T01:47:20;100736.28;;;21.76;61.19
62126;BME280;69591;53.282;6.150;2023-07-31T01:48:22;100733.53;;;21.76;61.10
62126;BME280;69591;53.282;6.150;2023-07-31T01:49:24;100734.34;;;21.77;61.10
62126;BME280;69591;53.282;6.150;2023-07-31T01:50:25;100730.78;;;21.76;61.25
62126;BME280;69591;53.282;6.150;2023-07-31T01:51:27;100728.06;;;21.76;61.48
62126;BME280;69591;53.282;6.150;2023-07-31T01:52:29;100733.53;;;21.76;61.11
62126;BME280;69591;53.282;6.150;2023-07-31T01:53:31;100725.31;;;21.76;61.47
62126;BME280;69591;53.282;6.150;2023-07-31T01:54:32;100734.34;;;21.77;61.66
62126;BME280;69591;53.282;6.150;2023-07-31T01:55:34;100729.59;;;21.77;61.49
62126;BME280;69591;53.282;6.150;2023-07-31T01:56:37;100726.84;;;21.77;61.17
62126;BME280;69591;53.282;6.150;2023-07-31T01:57:39;100726.50;;;21.75;61.08
62126;BME280;69591;53.282;6.150;2023-07-31T01:58:41;100719.81;;;21.76;61.10
62126;BME280;69591;53.282;6.150;2023-07-31T01:59:43;100721.75;;;21.76;61.17
62126;BME280;69591;53.282;6.150;2023-07-31T02:00:45;100717.84;;;21.77;61.30
62126;BME280;69591;53.282;6.150;2023-07-31T02:01:46;100716.28;;;21.76;61.09
62126;BME280;69591;53.282;6.150;2023-07-31T02:02:48;100715.09;;;21.77;61.44
62126;BME280;69591;53.282;6.150;2023-07-31T02:03:50;100701.38;;;21.73;61.49
62126;BME280;69591;53.282;6.150;2023-07-31T02:04:51;100708.81;;;21.76;61.08
62126;BME280;69591;53.282;6.150;2023-07-31T02:05:53;100708.81;;;21.76;61.69
62126;BME280;69591;53.282;6.150;2023-07-31T02:06:55;100707.28;;;21.75;61.03
62126;BME280;69591;53.282;6.150;2023-07-31T02:07:57;100704.53;;;21.75;61.73
62126;BME280;69591;53.282;6.150;2023-07-31T02:09:01;100710.03;;;21.75;61.22
62126;BME280;69591;53.282;6.150;2023-07-31T02:10:06;100702.91;;;21.74;61.31
62126;BME280;69591;53.282;6.150;2023-07-31T02:11:10;100705.66;;;21.74;61.68
62126;BME280;69591;53.282;6.150;2023-07-31T02:12:13;100706.06;;;21.76;61.13
62126;BME280;69591;53.282;6.150;2023-07-31T02:13:14;100702.91;;;21.74;61.55
62126;BME280;69591;53.282;6.150;2023-07-31T02:14:16;100697.41;;;21.74;61.50
62126;BME280;69591;53.282;6.150;2023-07-31T02:15:18;100697.41;;;21.74;61.12
62126;BME280;69591;53.282;6.150;2023-07-31T02:16:19;100701.78;;;21.75;61.29
62126;BME280;69591;53.282;6.150;2023-07-31T02:17:21;100703.72;;;21.75;61.07
62126;BME280;69591;53.282;6.150;2023-07-31T02:18:23;100702.91;;;21.74;61.28
62126;BME280;69591;53.282;6.150;2023-07-31T02:19:24;100697.41;;;21.74;61.26
62126;BME280;69591;53.282;6.150;2023-07-31T02:20:26;100702.91;;;21.74;61.33
62126;BME280;69591;53.282;6.150;2023-07-31T02:21:28;100710.03;;;21.75;61.52
62126;BME280;69591;53.282;6.150;2023-07-31T02:22:29;100702.16;;;21.74;61.43
62126;BME280;69591;53.282;6.150;2023-07-31T02:23:31;100701.38;;;21.73;61.73
62126;BME280;69591;53.282;6.150;2023-07-31T02:24:33;100696.66;;;21.74;61.26
62126;BME280;69591;53.282;6.150;2023-07-31T02:25:34;100696.66;;;21.74;61.56
62126;BME280;69591;53.282;6.150;2023-07-31T02:26:36;100698.22;;;21.75;61.69
62126;BME280;69591;53.282;6.150;2023-07-31T02:27:39;100694.69;;;21.74;61.26
62126;BME280;69591;53.282;6.150;2023-07-31T02:28:41;100699.41;;;21.74;61.61
62126;BME280;69591;53.282;6.150;2023-07-31T02:29:43;100693.91;;;21.74;61.76
62126;BME280;69591;53.282;6.150;2023-07-31T02:30:46;100689.59;;;21.73;61.25
62126;BME280;69591;53.282;6.150;2023-07-31T02:31:48;100695.88;;;21.73;61.71
62126;BME280;69591;53.282;6.150;2023-07-31T02:32:50;100695.88;;;21.73;61.51
62126;BME280;69591;53.282;6.150;2023-07-31T02:33:52;100684.88;;;21.73;61.09
62126;BME280;69591;53.282;6.150;2023-07-31T02:34:53;100690.38;;;21.73;61.63
62126;BME280;69591;53.282;6.150;2023-07-31T02:35:55;100684.09;;;21.73;61.64
62126;BME280;69591;53.282;6.150;2023-07-31T02:36:57;100686.84;;;21.73;61.64
62126;BME280;69591;53.282;6.150;2023-07-31T02:38:00;100695.09;;;21.73;61.17
62126;BME280;69591;53.282;6.150;2023-07-31T02:39:02;100687.63;;;21.73;61.16
62126;BME280;69591;53.282;6.150;2023-07-31T02:40:04;100689.59;;;21.73;61.66
62126;BME280;69591;53.282;6.150;2023-07-31T02:41:06;100690.81;;;21.72;61.66
62126;BME280;69591;53.282;6.150;2023-07-31T02:42:08;100688.81;;;21.72;61.77
62126;BME280;69591;53.282;6.150;2023-07-31T02:43:11;100682.13;;;21.73;61.52
62126;BME280;69591;53.282;6.150;2023-07-31T02:44:13;100682.56;;;21.72;61.67
62126;BME280;69591;53.282;6.150;2023-07-31T02:45:14;100676.28;;;21.71;61.13
62126;BME280;69591;53.282;6.150;2023-07-31T02:46:16;100670.78;;;21.71;61.44
62126;BME280;69591;53.282;6.150;2023-07-31T02:47:18;100673.25;;;21.66;61.67
62126;BME280;69591;53.282;6.150;2023-07-31T02:48:20;100670.78;;;21.71;61.81
62126;BME280;69591;53.282;6.150;2023-07-31T02:49:21;100670.78;;;21.71;61.32
62126;BME280;69591;53.282;6.150;2023-07-31T02:50:23;100666.50;;;21.70;61.46
62126;BME280;69591;53.282;6.150;2023-07-31T02:51:24;100670.00;;;21.71;61.22
62126;BME280;69591;53.282;6.150;2023-07-31T02:52:26;100673.94;;;21.70;61.18
62126;BME280;69591;53.282;6.150;2023-07-31T02:53:28;100663.75;;;21.70;61.18
62126;BME280;69591;53.282;6.150;2023-07-31T02:54:29;100674.72;;;21.70;61.75
62126;BME280;69591;53.282;6.150;2023-07-31T02:55:31;100668.44;;;21.70;61.25
62126;BME280;69591;53.282;6.150;2023-07-31T02:56:33;100674.72;;;21.70;61.51
62126;BME280;69591;53.282;6.150;2023-07-31T02:57:34;100673.94;;;21.70;61.28
62126;BME280;69591;53.282;6.150;2023-07-31T02:58:38;100679.03;;;21.71;61.32
62126;BME280;69591;53.282;6.150;2023-07-31T02:59:39;100680.22;;;21.70;61.28
62126;BME280;69591;53.282;6.150;2023-07-31T03:00:42;100673.94;;;21.70;61.65
62126;BME280;69591;53.282;6.150;2023-07-31T03:01:43;100667.66;;;21.69;61.80
62126;BME280;69591;53.282;6.150;2023-07-31T03:02:45;100678.66;;;21.69;61.68
62126;BME280;69591;53.282;6.150;2023-07-31T03:03:47;100669.25;;;21.70;61.54
62126;BME280;69591;53.282;6.150;2023-07-31T03:04:49;100664.91;;;21.69;61.50
62126;BME280;69591;53.282;6.150;2023-07-31T03:05:51;100666.50;;;21.70;61.83
62126;BME280;69591;53.282;6.150;2023-07-31T03:06:52;100668.44;;;21.70;61.58
62126;BME280;69591;53.282;6.150;2023-07-31T03:07:54;100661.41;;;21.69;61.25
62126;BME280;69591;53.282;6.150;2023-07-31T03:08:58;100667.66;;;21.69;61.46
62126;BME280;69591;53.282;6.150;2023-07-31T03:09:59;100671.63;;;21.68;61.38
62126;BME280;69591;53.282;6.150;2023-07-31T03:11:01;100664.91;;;21.69;61.30
62126;BME280;69591;53.282;6.150;2023-07-31T03:12:03;100671.63;;;21.68;61.25
62126;BME280;69591;53.282;6.150;2023-07-31T03:13:05;100665.34;;;21.68;61.86
62126;BME280;69591;53.282;6.150;2023-07-31T03:14:08;100673.16;;;21.69;61.35
62126;BME280;69591;53.282;6.150;2023-07-31T03:15:10;100664.16;;;21.69;61.35
62126;BME280;69591;53.282;6.150;2023-07-31T03:16:12;100666.13;;;21.68;61.77
62126;BME280;69591;53.282;6.150;2023-07-31T03:17:13;100672.81;;;21.67;61.83
62126;BME280;69591;53.282;6.150;2023-07-31T03:18:15;100668.88;;;21.68;61.30
62126;BME280;69591;53.282;6.150;2023-07-31T03:19:17;100666.13;;;21.68;61.86
62126;BME280;69591;53.282;6.150;2023-07-31T03:20:18;100666.91;;;21.69;61.39
62126;BME280;69591;53.282;6.150;2023-07-31T03:21:21;100666.13;;;21.68;61.25
62126;BME280;69591;53.282;6.150;2023-07-31T03:22:22;100677.13;;;21.68;61.75
62126;BME280;69591;53.282;6.150;2023-07-31T03:23:25;100664.59;;;21.67;61.84
62126;BME280;69591;53.282;6.150;2023-07-31T03:24:28;100666.13;;;21.68;61.53
62126;BME280;69591;53.282;6.150;2023-07-31T03:25:30;100662.59;;;21.68;61.68
62126;BME280;69591;53.282;6.150;2023-07-31T03:26:31;100660.63;;;21.68;61.73
62126;BME280;69591;53.282;6.150;2023-07-31T03:27:33;100666.13;;;21.68;61.81
62126;BME280;69591;53.282;6.150;2023-07-31T03:28:35;100668.09;;;21.68;61.42
62126;BME280;69591;53.282;6.150;2023-07-31T03:29:38;100672.41;;;21.69;61.66
62126;BME280;69591;53.282;6.150;2023-07-31T03:30:40;100671.25;;;21.66;61.89
62126;BME280;69591;53.282;6.150;2023-07-31T03:31:42;100676.34;;;21.68;61.80
62126;BME280;69591;53.282;6.150;2023-07-31T03:32:43;100679.09;;;21.68;61.46
62126;BME280;69591;53.282;6.150;2023-07-31T03:33:45;100673.59;;;21.68;61.89
62126;BME280;69591;53.282;6.150;2023-07-31T03:34:47;100657.94;;;21.65;61.56
62126;BME280;69591;53.282;6.150;2023-07-31T03:35:49;100662.59;;;21.68;61.88
62126;BME280;69591;53.282;6.150;2023-07-31T03:36:50;100662.59;;;21.68;61.90
62126;BME280;69591;53.282;6.150;2023-07-31T03:37:52;100663.81;;;21.67;61.34
62126;BME280;69591;53.282;6.150;2023-07-31T03:38:54;100657.53;;;21.66;61.40
62126;BME280;69591;53.282;6.150;2023-07-31T03:39:55;100658.31;;;21.67;61.57
62126;BME280;69591;53.282;6.150;2023-07-31T03:40:57;100659.09;;;21.67;61.86
62126;BME280;69591;53.282;6.150;2023-07-31T03:41:58;100659.09;;;21.67;61.30
62126;BME280;69591;53.282;6.150;2023-07-31T03:43:00;100652.03;;;21.66;61.69
62126;BME280;69591;53.282;6.150;2023-07-31T03:44:02;100653.59;;;21.67;61.68
62126;BME280;69591;53.282;6.150;2023-07-31T03:45:08;100647.31;;;21.67;61.49
62126;BME280;69591;53.282;6.150;2023-07-31T03:46:10;100646.53;;;21.66;61.33
62126;BME280;69591;53.282;6.150;2023-07-31T03:47:12;100647.31;;;21.67;61.33
62126;BME280;69591;53.282;6.150;2023-07-31T03:48:14;100641.81;;;21.67;61.33
62126;BME280;69591;53.282;6.150;2023-07-31T03:49:16;100650.06;;;21.67;61.50
62126;BME280;69591;53.282;6.150;2023-07-31T03:50:17;100645.78;;;21.66;61.35
62126;BME280;69591;53.282;6.150;2023-07-31T03:51:19;100649.28;;;21.66;61.81
62126;BME280;69591;53.282;6.150;2023-07-31T03:52:21;100645.78;;;21.66;61.43
62126;BME280;69591;53.282;6.150;2023-07-31T03:53:22;100653.59;;;21.67;61.86
62126;BME280;69591;53.282;6.150;2023-07-31T03:54:24;100646.53;;;21.66;61.33
62126;BME280;69591;53.282;6.150;2023-07-31T03:55:26;100649.28;;;21.66;61.53
62126;BME280;69591;53.282;6.150;2023-07-31T03:56:27;100652.03;;;21.66;61.84
62126;BME280;69591;53.282;6.150;2023-07-31T03:57:29;100652.03;;;21.66;61.50
62126;BME280;69591;53.282;6.150;2023-07-31T03:58:31;100647.72;;;21.65;61.62
62126;BME280;69591;53.282;6.150;2023-07-31T03:59:32;100644.97;;;21.65;61.53
62126;BME280;69591;53.282;6.150;2023-07-31T04:00:35;100644.56;;;21.67;61.79
62126;BME280;69591;53.282;6.150;2023-07-31T04:01:37;100644.97;;;21.65;61.52
62126;BME280;69591;53.282;6.150;2023-07-31T04:02:39;100651.25;;;21.66;61.76
62126;BME280;69591;53.282;6.150;2023-07-31T04:03:41;100644.97;;;21.65;61.72
62126;BME280;69591;53.282;6.150;2023-07-31T04:04:42;100644.97;;;21.65;61.95
62126;BME280;69591;53.282;6.150;2023-07-31T04:05:44;100644.97;;;21.65;61.90
62126;BME280;69591;53.282;6.150;2023-07-31T04:06:46;100639.50;;;21.65;61.38
62126;BME280;69591;53.282;6.150;2023-07-31T04:07:48;100636.38;;;21.63;61.41
62126;BME280;69591;53.282;6.150;2023-07-31T04:08:49;100638.69;;;21.65;61.43
62126;BME280;69591;53.282;6.150;2023-07-31T04:09:51;100635.19;;;21.64;61.57
62126;BME280;69591;53.282;6.150;2023-07-31T04:10:53;100634.00;;;21.65;61.73
62126;BME280;69591;53.282;6.150;2023-07-31T04:11:54;100634.41;;;21.64;61.46
62126;BME280;69591;53.282;6.150;2023-07-31T04:12:56;100629.72;;;21.64;61.94
62126;BME280;69591;53.282;6.150;2023-07-31T04:13:57;100629.28;;;21.66;61.83
62126;BME280;69591;53.282;6.150;2023-07-31T04:14:59;100626.97;;;21.64;61.30
62126;BME280;69591;53.282;6.150;2023-07-31T04:16:02;100626.53;;;21.66;61.83
62126;BME280;69591;53.282;6.150;2023-07-31T04:17:04;100623.00;;;21.65;61.92
62126;BME280;69591;53.282;6.150;2023-07-31T04:18:06;100624.22;;;21.64;61.38
62126;BME280;69591;53.282;6.150;2023-07-31T04:19:08;100630.47;;;21.65;61.61
62126;BME280;69591;53.282;6.150;2023-07-31T04:20:10;100627.72;;;21.65;61.93
62126;BME280;69591;53.282;6.150;2023-07-31T04:21:12;100628.13;;;21.63;61.79
62126;BME280;69591;53.282;6.150;2023-07-31T04:22:14;100623.00;;;21.65;61.42
62126;BME280;69591;53.282;6.150;2023-07-31T04:23:15;100628.91;;;21.64;61.56
62126;BME280;69591;53.282;6.150;2023-07-31T04:24:17;100626.97;;;21.64;62.00
62126;BME280;69591;53.282;6.150;2023-07-31T04:25:19;100626.16;;;21.64;61.97
62126;BME280;69591;53.282;6.150;2023-07-31T04:26:20;100626.97;;;21.64;61.57
62126;BME280;69591;53.282;6.150;2023-07-31T04:27:22;100623.44;;;21.64;61.63
62126;BME280;69591;53.282;6.150;2023-07-31T04:28:24;100619.47;;;21.65;61.43
62126;BME280;69591;53.282;6.150;2023-07-31T04:29:25;100621.47;;;21.64;61.91
62126;BME280;69591;53.282;6.150;2023-07-31T04:30:27;100622.22;;;21.65;61.45
62126;BME280;69591;53.282;6.150;2023-07-31T04:31:30;100623.00;;;21.65;61.69
62126;BME280;69591;53.282;6.150;2023-07-31T04:32:32;100623.00;;;21.65;61.78
62126;BME280;69591;53.282;6.150;2023-07-31T04:33:34;100617.50;;;21.65;61.89
62126;BME280;69591;53.282;6.150;2023-07-31T04:34:35;100610.47;;;21.64;61.68
62126;BME280;69591;53.282;6.150;2023-07-31T04:35:37;100611.22;;;21.65;61.92
62126;BME280;69591;53.282;6.150;2023-07-31T04:36:39;100612.78;;;21.66;61.51
62126;BME280;69591;53.282;6.150;2023-07-31T04:37:41;100611.22;;;21.65;61.76
62126;BME280;69591;53.282;6.150;2023-07-31T04:38:42;100607.31;;;21.66;61.30
62126;BME280;69591;53.282;6.150;2023-07-31T04:39:44;100608.06;;;21.66;61.47
62126;BME280;69591;53.282;6.150;2023-07-31T04:40:46;100611.16;;;21.68;61.79
62126;BME280;69591;53.282;6.150;2023-07-31T04:41:48;100606.09;;;21.67;61.44
62126;BME280;69591;53.282;6.150;2023-07-31T04:42:49;100610.38;;;21.68;61.38
62126;BME280;69591;53.282;6.150;2023-07-31T04:43:51;100607.22;;;21.69;61.70
62126;BME280;69591;53.282;6.150;2023-07-31T04:44:53;100611.94;;;21.69;61.27
62126;BME280;69591;53.282;6.150;2023-07-31T04:45:55;100609.97;;;21.69;61.81
62126;BME280;69591;53.282;6.150;2023-07-31T04:46:58;100606.03;;;21.70;61.13
62126;BME280;69591;53.282;6.150;2023-07-31T04:48:00;100604.47;;;21.69;61.67
62126;BME280;69591;53.282;6.150;2023-07-31T04:49:01;100601.72;;;21.69;61.16
62126;BME280;69591;53.282;6.150;2023-07-31T04:50:04;100604.47;;;21.69;61.33
62126;BME280;69591;53.282;6.150;2023-07-31T04:51:05;100605.66;;;21.68;61.72
62126;BME280;69591;53.282;6.150;2023-07-31T04:52:07;100605.25;;;21.70;61.78
62126;BME280;69591;53.282;6.150;2023-07-31T04:53:09;100608.00;;;21.70;61.49
62126;BME280;69591;53.282;6.150;2023-07-31T04:54:10;100603.72;;;21.69;61.19
62126;BME280;69591;53.282;6.150;2023-07-31T04:55:12;100607.22;;;21.69;61.71
62126;BME280;69591;53.282;6.150;2023-07-31T04:56:14;100602.91;;;21.68;61.56
62126;BME280;69591;53.282;6.150;2023-07-31T04:57:16;100602.91;;;21.68;61.43
62126;BME280;69591;53.282;6.150;2023-07-31T04:58:18;100601.72;;;21.69;61.37
62126;BME280;69591;53.282;6.150;2023-07-31T04:59:19;100600.19;;;21.68;61.19
62126;BME280;69591;53.282;6.150;2023-07-31T05:00:21;100603.28;;;21.70;61.11
62126;BME280;69591;53.282;6.150;2023-07-31T05:01:23;100597.78;;;21.70;61.13
62126;BME280;69591;53.282;6.150;2023-07-31T05:02:26;100603.28;;;21.70;61.29
62126;BME280;69591;53.282;6.150;2023-07-31T05:03:28;100612.72;;;21.69;61.60
62126;BME280;69591;53.282;6.150;2023-07-31T05:04:29;100608.00;;;21.70;61.10
62126;BME280;69591;53.282;6.150;2023-07-31T05:05:31;100608.78;;;21.70;61.56
62126;BME280;69591;53.282;6.150;2023-07-31T05:06:33;100608.78;;;21.70;61.67
62126;BME280;69591;53.282;6.150;2023-07-31T05:07:35;100604.81;;;21.71;61.37
62126;BME280;69591;53.282;6.150;2023-07-31T05:08:36;100604.81;;;21.71;61.11
62126;BME280;69591;53.282;6.150;2023-07-31T05:09:38;100599.31;;;21.71;61.27
62126;BME280;69591;53.282;6.150;2023-07-31T05:10:40;100595.38;;;21.72;61.16
62126;BME280;69591;53.282;6.150;2023-07-31T05:11:41;100600.47;;;21.74;61.00
62126;BME280;69591;53.282;6.150;2023-07-31T05:12:43;100600.09;;;21.75;61.58
62126;BME280;69591;53.282;6.150;2023-07-31T05:13:44;100600.09;;;21.75;61.43
62126;BME280;69591;53.282;6.150;2023-07-31T05:14:46;100593.78;;;21.75;61.49
62126;BME280;69591;53.282;6.150;2023-07-31T05:15:48;100595.72;;;21.74;61.28
62126;BME280;69591;53.282;6.150;2023-07-31T05:16:49;100592.59;;;21.76;61.38
62126;BME280;69591;53.282;6.150;2023-07-31T05:17:52;100596.13;;;21.76;61.34
62126;BME280;69591;53.282;6.150;2023-07-31T05:18:54;100587.88;;;21.76;61.04
62126;BME280;69591;53.282;6.150;2023-07-31T05:19:57;100592.59;;;21.76;61.49
62126;BME280;69591;53.282;6.150;2023-07-31T05:20:59;100587.09;;;21.76;61.45
62126;BME280;69591;53.282;6.150;2023-07-31T05:22:00;100586.34;;;21.75;61.16
62126;BME280;69591;53.282;6.150;2023-07-31T05:23:02;100589.09;;;21.75;61.44
62126;BME280;69591;53.282;6.150;2023-07-31T05:24:04;100585.13;;;21.76;61.33
62126;BME280;69591;53.282;6.150;2023-07-31T05:25:06;100585.13;;;21.76;61.30
62126;BME280;69591;53.282;6.150;2023-07-31T05:26:08;100586.34;;;21.75;61.31
62126;BME280;69591;53.282;6.150;2023-07-31T05:27:10;100589.09;;;21.75;61.00